Time;durP1;ratioP1;P1;durP2;ratioP2;P2;SDS_P1;SDS_P2;PMS_P1;PMS_P2;Temp;Humidity;BMP_temperature;BMP_pressure;BME280_temperature;BME280_humidity;BME280_pressure;Samples;Min_cycle;Max_cycle;Signal;HPM_P1;HPM_P2
2023/04/21 00:00:14;;;;;;;14.70;13.30;;;;;;;7.76;100.00;99302.94;6213064;23;20142;-83
2023/04/21 00:02:41;;;;;;;14.60;13.00;;;;;;;7.78;100.00;99292.91;6188141;23;20193;-82
2023/04/21 00:05:09;;;;;;;15.17;13.60;;;;;;;7.79;100.00;99294.53;6212418;23;20163;-82
2023/04/21 00:07:38;;;;;;;14.13;12.83;;;;;;;7.76;100.00;99295.75;6162863;23;20246;-82
2023/04/21 00:10:10;;;;;;;14.33;12.93;;;;;;;7.82;100.00;99297.59;6212709;23;20160;-82
2023/04/21 00:12:48;;;;;;;15.53;12.70;;;;;;;7.76;100.00;99301.09;6161496;23;20190;-83
2023/04/21 00:15:19;;;;;;;13.27;12.07;;;;;;;7.70;100.00;99295.81;6213208;23;20185;-83
2023/04/21 00:17:57;;;;;;;14.10;12.67;;;;;;;7.66;100.00;99299.88;6210636;23;20154;-82
2023/04/21 00:20:33;;;;;;;14.03;12.60;;;;;;;7.60;100.00;99306.91;6212818;23;20166;-82
2023/04/21 00:23:06;;;;;;;14.03;12.63;;;;;;;7.54;100.00;99299.72;6216376;23;20211;-83
2023/04/21 00:26:19;;;;;;;15.40;12.30;;;;;;;7.47;100.00;99294.38;6273959;23;20180;-83
2023/04/21 00:29:04;;;;;;;13.53;12.20;;;;;;;7.47;100.00;99290.91;6247430;23;20262;-83
2023/04/21 00:31:41;;;;;;;14.10;12.70;;;;;;;7.36;100.00;99294.22;6273818;22;20208;-83
2023/04/21 00:34:14;;;;;;;14.00;12.60;;;;;;;7.27;100.00;99296.28;6248182;23;20149;-83
2023/04/21 00:36:58;;;;;;;14.07;12.23;;;;;;;7.25;100.00;99287.66;6225315;23;20220;-83
2023/04/21 00:40:09;;;;;;;13.77;12.47;;;;;;;7.19;100.00;99288.47;6261421;23;20206;-82
2023/04/21 00:42:48;;;;;;;16.27;13.47;;;;;;;7.18;100.00;99284.19;6271545;23;20148;-82
2023/04/21 00:45:43;;;;;;;14.40;12.97;;;;;;;7.21;100.00;99285.59;6222372;23;20161;-83
2023/04/21 00:49:06;;;;;;;14.43;12.73;;;;;;;7.15;100.00;99284.59;6267508;23;20189;-82
2023/04/21 00:51:35;;;;;;;13.43;12.00;;;;;;;7.05;100.00;99282.31;6210573;23;20183;-81
2023/04/21 00:54:07;;;;;;;13.87;12.37;;;;;;;7.07;100.00;99284.81;6240389;23;20175;-82
2023/04/21 00:56:41;;;;;;;13.20;11.90;;;;;;;7.08;100.00;99289.09;6241667;23;20153;-83
2023/04/21 00:59:21;;;;;;;13.17;11.90;;;;;;;7.08;100.00;99278.44;6244518;23;20160;-83
2023/04/21 01:02:21;;;;;;;13.27;11.97;;;;;;;7.06;100.00;99285.81;6250301;23;20152;-83
2023/04/21 01:05:17;;;;;;;13.23;11.93;;;;;;;7.09;100.00;99282.75;6245788;23;20169;-83
2023/04/21 01:08:10;;;;;;;13.27;11.97;;;;;;;7.11;100.00;99279.88;6267251;23;20176;-82
2023/04/21 01:10:37;;;;;;;12.53;11.27;;;;;;;7.11;100.00;99277.22;6267899;23;20181;-82
2023/04/21 01:13:05;;;;;;;13.17;11.87;;;;;;;7.12;100.00;99282.34;6217533;23;20176;-82
2023/04/21 01:15:32;;;;;;;12.77;11.47;;;;;;;7.11;100.00;99280.69;6244475;23;20153;-82
2023/04/21 01:18:24;;;;;;;12.20;11.00;;;;;;;7.12;100.00;99274.34;6271101;23;20171;-83
2023/04/21 01:24:54;;;;;;;12.33;11.13;;;;;;;7.07;100.00;99277.63;6215776;23;20230;-83
2023/04/21 01:27:21;;;;;;;12.53;11.30;;;;;;;7.02;100.00;99269.44;6214369;23;20188;-82
2023/04/21 01:29:50;;;;;;;11.73;10.63;;;;;;;7.00;100.00;99271.47;6163209;23;20217;-82
2023/04/21 01:32:20;;;;;;;11.93;10.73;;;;;;;7.08;100.00;99273.13;6163480;23;20174;-82
2023/04/21 01:34:48;;;;;;;12.40;11.10;;;;;;;7.05;100.00;99269.00;6139213;23;20173;-82
2023/04/21 01:37:21;;;;;;;11.23;10.23;;;;;;;6.99;100.00;99267.19;6139053;23;20177;-85
2023/04/21 01:39:53;;;;;;;12.00;10.90;;;;;;;7.03;100.00;99272.91;6164344;23;20162;-82
2023/04/21 01:42:22;;;;;;;11.03;9.93;;;;;;;7.00;100.00;99273.31;6164122;23;20165;-83
2023/04/21 01:44:50;;;;;;;11.13;10.13;;;;;;;7.03;100.00;99272.91;6139157;23;20425;-83
2023/04/21 01:47:17;;;;;;;12.20;10.13;;;;;;;7.00;100.00;99279.47;6163570;23;20170;-82
2023/04/21 01:49:44;;;;;;;11.37;10.20;;;;;;;7.00;100.00;99274.13;6163483;23;20269;-82
2023/04/21 01:52:11;;;;;;;11.77;10.57;;;;;;;7.06;100.00;99275.16;6163677;23;20174;-84
2023/04/21 01:54:38;;;;;;;11.37;10.27;;;;;;;7.06;100.00;99277.81;6163589;23;20483;-82
2023/04/21 01:57:06;;;;;;;11.53;10.43;;;;;;;7.07;100.00;99279.47;6163659;23;20722;-82
2023/04/21 01:59:33;;;;;;;13.43;10.53;;;;;;;7.12;100.00;99281.53;6187878;23;20208;-83
2023/04/21 02:02:01;;;;;;;12.03;10.60;;;;;;;7.08;100.00;99279.28;6139773;23;20173;-81
2023/04/21 02:04:27;;;;;;;11.63;10.53;;;;;;;7.11;100.00;99280.69;6163463;23;20622;-82
2023/04/21 02:06:54;;;;;;;11.73;10.57;;;;;;;7.08;100.00;99283.78;6139025;23;20173;-82
2023/04/21 02:09:21;;;;;;;12.23;10.63;;;;;;;6.99;100.00;99287.69;6138518;23;20268;-82
2023/04/21 02:11:51;;;;;;;11.60;10.50;;;;;;;6.97;100.00;99279.06;6140943;23;20189;-81
2023/04/21 02:14:18;;;;;;;11.47;10.40;;;;;;;6.98;100.00;99280.69;6138918;23;20248;-83
2023/04/21 02:16:44;;;;;;;11.47;10.27;;;;;;;6.92;100.00;99277.00;6163726;23;20616;-81
2023/04/21 02:19:11;;;;;;;11.23;10.03;;;;;;;6.87;100.00;99281.31;6163350;23;20184;-82
2023/04/21 02:21:38;;;;;;;11.77;10.57;;;;;;;6.81;100.00;99288.25;6163675;23;20592;-82
2023/04/21 02:24:05;;;;;;;11.70;10.57;;;;;;;6.73;100.00;99284.97;6143135;23;20208;-82
2023/04/21 02:26:32;;;;;;;11.30;10.23;;;;;;;6.51;100.00;99284.34;6133835;23;20177;-82
2023/04/21 02:28:59;;;;;;;11.37;10.20;;;;;;;6.49;100.00;99281.03;6109432;23;20214;-81
2023/04/21 02:31:25;;;;;;;11.77;9.90;;;;;;;6.49;100.00;99279.19;6133746;23;20257;-82
2023/04/21 02:33:53;;;;;;;12.17;10.90;;;;;;;6.48;100.00;99282.91;6134037;23;20216;-82
2023/04/21 02:36:20;;;;;;;12.70;11.40;;;;;;;6.40;100.00;99275.09;6135582;23;20648;-80
2023/04/21 02:38:47;;;;;;;11.90;10.80;;;;;;;6.40;100.00;99274.25;6111865;23;20170;-82
2023/04/21 02:41:13;;;;;;;11.60;10.40;;;;;;;6.36;100.00;99286.34;6135770;23;20794;-82
2023/04/21 02:43:40;;;;;;;11.30;10.20;;;;;;;6.32;100.00;99287.75;6135767;23;20170;-82
2023/04/21 02:46:07;;;;;;;11.80;10.70;;;;;;;6.29;100.00;99285.50;6135916;23;20202;-82
2023/04/21 02:48:35;;;;;;;11.20;10.07;;;;;;;6.23;100.00;99286.31;6135737;23;20188;-83
2023/04/21 02:51:03;;;;;;;11.57;10.47;;;;;;;6.16;100.00;99279.13;6111230;23;20178;-81
2023/04/21 02:53:30;;;;;;;12.07;10.77;;;;;;;6.07;100.00;99276.81;6135965;23;20621;-82
2023/04/21 02:55:56;;;;;;;11.73;10.53;;;;;;;6.15;100.00;99274.00;6111440;23;20170;-81
2023/04/21 02:58:23;;;;;;;11.37;10.27;;;;;;;6.05;100.00;99270.91;6160375;23;20245;-82
2023/04/21 03:00:50;;;;;;;11.77;10.57;;;;;;;5.93;100.00;99270.63;6111629;23;20531;-80
2023/04/21 03:03:17;;;;;;;11.93;10.40;;;;;;;5.86;100.00;99264.47;6135690;23;20174;-81
2023/04/21 03:05:44;;;;;;;11.60;10.40;;;;;;;5.84;100.00;99265.66;6135672;23;20205;-82
2023/04/21 03:08:11;;;;;;;11.13;10.10;;;;;;;5.78;100.00;99275.25;6135447;23;20244;-81
2023/04/21 03:10:38;;;;;;;11.83;10.70;;;;;;;5.67;100.00;99266.00;6135940;23;20178;-82
2023/04/21 03:13:06;;;;;;;11.93;10.20;;;;;;;5.71;100.00;99272.56;6136376;23;20249;-82
2023/04/21 03:15:33;;;;;;;11.40;10.30;;;;;;;5.78;100.00;99266.47;6135777;23;20167;-81
2023/04/21 03:18:00;;;;;;;11.30;10.20;;;;;;;5.72;100.00;99276.03;6110990;23;20265;-82
2023/04/21 03:20:27;;;;;;;11.70;10.60;;;;;;;5.62;100.00;99284.38;6111534;23;20170;-81
2023/04/21 03:22:54;;;;;;;11.93;10.67;;;;;;;5.62;100.00;99286.22;6111580;23;20252;-82
2023/04/21 03:25:21;;;;;;;11.77;10.57;;;;;;;5.58;100.00;99283.13;6135638;23;20181;-81
2023/04/21 03:27:48;;;;;;;13.30;11.90;;;;;;;5.62;100.00;99287.03;6111302;23;20178;-82
2023/04/21 03:30:14;;;;;;;13.00;11.70;;;;;;;5.65;100.00;99288.47;6135753;23;20216;-84
2023/04/21 03:32:41;;;;;;;12.90;11.70;;;;;;;5.61;100.00;99287.22;6135862;23;20178;-82
2023/04/21 03:35:08;;;;;;;13.27;11.93;;;;;;;5.56;100.00;99274.50;6135598;23;20181;-82
2023/04/21 03:37:34;;;;;;;12.43;11.23;;;;;;;5.51;100.00;99276.13;6135577;23;20249;-81
2023/04/21 03:40:01;;;;;;;11.60;10.47;;;;;;;5.46;100.00;99278.56;6159826;23;20166;-81
2023/04/21 03:42:29;;;;;;;12.63;11.33;;;;;;;5.39;100.00;99277.69;6135605;23;20174;-81
2023/04/21 03:44:56;;;;;;;11.77;10.57;;;;;;;5.38;100.00;99282.19;6135320;23;20637;-81
2023/04/21 03:47:23;;;;;;;11.00;9.97;;;;;;;5.39;100.00;99285.66;6135966;23;20174;-82
2023/04/21 03:49:50;;;;;;;11.43;10.23;;;;;;;5.36;100.00;99292.19;6111808;23;20194;-82
2023/04/21 03:52:17;;;;;;;11.43;10.17;;;;;;;5.31;100.00;99283.97;6135658;23;20202;-81
2023/04/21 03:54:43;;;;;;;11.63;9.87;;;;;;;5.26;100.00;99281.91;6135348;23;20212;-82
2023/04/21 03:57:10;;;;;;;11.67;10.47;;;;;;;5.25;100.00;99293.53;6111020;23;20225;-83
2023/04/21 03:59:37;;;;;;;11.47;10.27;;;;;;;5.24;100.00;99294.53;6159726;23;20225;-81
2023/04/21 04:02:03;;;;;;;11.13;10.03;;;;;;;5.27;100.00;99298.66;6135244;23;20239;-80
2023/04/21 04:04:30;;;;;;;13.27;11.97;;;;;;;5.25;100.00;99295.38;6159719;23;20172;-81
2023/04/21 04:06:57;;;;;;;14.73;13.23;;;;;;;5.25;100.00;99303.34;6159674;23;20170;-81
2023/04/21 04:09:24;;;;;;;15.87;14.23;;;;;;;5.29;100.00;99309.91;6135292;23;20217;-81
2023/04/21 04:11:51;;;;;;;15.93;14.47;;;;;;;5.30;100.00;99303.59;6135541;23;20249;-83
2023/04/21 04:14:18;;;;;;;14.73;13.30;;;;;;;5.31;100.00;99300.75;6160105;23;20626;-82
2023/04/21 04:16:44;;;;;;;14.43;13.03;;;;;;;5.32;100.00;99306.84;6135118;23;20174;-83
2023/04/21 04:19:11;;;;;;;13.47;12.20;;;;;;;5.34;100.00;99310.16;6159566;23;20199;-81
2023/04/21 04:21:39;;;;;;;13.23;11.97;;;;;;;5.42;100.00;99309.16;6185023;23;20233;-82
2023/04/21 04:24:07;;;;;;;13.37;11.37;;;;;;;5.45;100.00;99309.63;6149654;23;20210;-82
2023/04/21 04:26:36;;;;;;;12.70;11.40;;;;;;;5.52;100.00;99312.31;6135695;23;20225;-83
2023/04/21 04:29:04;;;;;;;12.07;10.97;;;;;;;5.53;100.00;99306.81;6110611;23;20196;-81
2023/04/21 04:31:31;;;;;;;12.10;10.90;;;;;;;5.63;100.00;99317.09;6110870;23;20639;-82
2023/04/21 04:33:58;;;;;;;11.97;10.70;;;;;;;5.68;100.00;99323.47;6159391;23;20171;-82
2023/04/21 04:36:26;;;;;;;10.93;9.60;;;;;;;5.78;100.00;99323.13;6134973;23;20170;-83
2023/04/21 04:38:53;;;;;;;11.07;9.83;;;;;;;5.90;100.00;99315.41;6112006;23;20174;-82
2023/04/21 04:41:21;;;;;;;11.63;10.43;;;;;;;5.99;100.00;99311.56;6110634;23;20170;-82
2023/04/21 04:43:48;;;;;;;12.30;11.00;;;;;;;6.13;100.00;99319.41;6135801;23;20289;-81
2023/04/21 04:46:14;;;;;;;11.20;10.10;;;;;;;6.29;100.00;99317.44;6111029;23;20250;-82
2023/04/21 04:48:41;;;;;;;11.80;10.60;;;;;;;6.43;100.00;99324.44;6134883;23;20182;-82
2023/04/21 04:51:08;;;;;;;11.00;9.90;;;;;;;6.56;100.00;99322.63;6135237;23;20158;-81
2023/04/21 04:53:35;;;;;;;10.93;9.83;;;;;;;6.74;100.00;99321.22;6135045;23;20170;-82
2023/04/21 04:56:01;;;;;;;10.83;9.73;;;;;;;6.87;100.00;99319.41;6134668;23;20206;-82
2023/04/21 04:58:28;;;;;;;10.93;9.20;;;;;;;7.07;100.00;99330.09;6110219;23;20499;-81
2023/04/21 05:00:55;;;;;;;10.20;9.20;;;;;;;7.25;100.00;99332.13;6110359;23;20197;-82
2023/04/21 05:03:21;;;;;;;10.30;9.30;;;;;;;7.39;100.00;99329.25;6134595;23;20158;-81
2023/04/21 05:05:48;;;;;;;9.83;8.93;;;;;;;7.54;100.00;99337.03;6135002;23;20621;-82
2023/04/21 05:08:15;;;;;;;9.47;8.57;;;;;;;7.71;100.00;99338.22;6134098;23;20281;-79
2023/04/21 05:10:43;;;;;;;10.80;9.17;;;;;;;7.89;100.00;99341.06;6110656;23;20197;-81
2023/04/21 05:13:10;;;;;;;11.93;10.63;;;;;;;8.06;100.00;99348.63;6110065;23;20209;-81
2023/04/21 05:15:36;;;;;;;11.77;10.57;;;;;;;8.20;100.00;99343.03;6133922;23;20619;-81
2023/04/21 05:18:03;;;;;;;9.73;8.73;;;;;;;8.36;100.00;99339.91;6134245;23;20193;-81
2023/04/21 05:20:30;;;;;;;10.80;9.40;;;;;;;8.53;100.00;99350.94;6109754;23;20250;-82
2023/04/21 05:22:57;;;;;;;10.50;9.40;;;;;;;8.65;100.00;99351.88;6134261;23;20225;-82
2023/04/21 05:25:24;;;;;;;10.53;9.43;;;;;;;8.75;100.00;99357.59;6109974;23;20170;-82
2023/04/21 05:27:50;;;;;;;10.30;9.40;;;;;;;8.91;100.00;99363.47;6134096;23;20645;-82
2023/04/21 05:30:17;;;;;;;10.87;9.87;;;;;;;9.05;100.00;99354.34;6134018;23;20194;-82
2023/04/21 05:32:44;;;;;;;10.13;9.13;;;;;;;9.19;100.00;99355.88;6110052;23;20170;-81
2023/04/21 05:35:11;;;;;;;10.30;9.17;;;;;;;9.37;100.00;99360.47;6109988;23;20178;-82
2023/04/21 05:37:37;;;;;;;10.00;9.10;;;;;;;9.49;100.00;99356.84;6133835;23;20228;-81
2023/04/21 05:40:05;;;;;;;10.00;9.10;;;;;;;9.64;100.00;99357.34;6133731;23;20228;-81
2023/04/21 05:42:31;;;;;;;9.73;8.83;;;;;;;9.79;100.00;99356.16;6109886;23;20170;-81
2023/04/21 05:44:58;;;;;;;10.23;9.23;;;;;;;9.93;100.00;99357.69;6109398;23;20194;-82
2023/04/21 05:47:25;;;;;;;10.47;9.37;;;;;;;10.06;100.00;99353.00;6109882;23;20182;-82
2023/04/21 05:49:52;;;;;;;10.50;9.50;;;;;;;10.24;100.00;99352.19;6134171;23;20246;-81
2023/04/21 05:52:22;;;;;;;10.63;9.63;;;;;;;10.40;100.00;99343.56;6109927;23;20174;-80
2023/04/21 05:54:49;;;;;;;10.87;9.53;;;;;;;10.56;100.00;99356.31;6133826;23;20252;-81
2023/04/21 05:57:16;;;;;;;10.33;9.37;;;;;;;10.71;100.00;99353.25;6110094;23;20178;-81
2023/04/21 05:59:43;;;;;;;10.23;9.23;;;;;;;10.85;100.00;99348.53;6109921;23;20166;-82
2023/04/21 06:02:10;;;;;;;11.60;10.40;;;;;;;10.98;100.00;99362.56;6110199;23;20174;-83
2023/04/21 06:04:37;;;;;;;10.13;9.17;;;;;;;11.12;100.00;99351.63;6109180;23;20170;-81
2023/04/21 06:07:06;;;;;;;10.83;9.63;;;;;;;11.26;100.00;99353.88;6109900;23;20225;-81
2023/04/21 06:09:34;;;;;;;10.03;9.13;;;;;;;11.38;100.00;99357.38;6109553;23;20667;-81
2023/04/21 06:12:04;;;;;;;10.63;9.70;;;;;;;11.48;100.00;99360.31;6136537;23;20703;-81
2023/04/21 06:14:31;;;;;;;10.00;9.17;;;;;;;11.60;100.00;99356.84;6135592;23;20166;-81
2023/04/21 06:16:57;;;;;;;10.00;9.00;;;;;;;11.73;100.00;99362.81;6111948;23;20648;-81
2023/04/21 06:19:24;;;;;;;9.90;9.00;;;;;;;11.89;100.00;99355.94;6111291;23;20170;-81
2023/04/21 06:21:51;;;;;;;10.87;9.87;;;;;;;12.00;100.00;99352.41;6111771;23;20174;-81
2023/04/21 06:24:24;;;;;;;10.47;9.47;;;;;;;12.08;100.00;99359.31;6133294;23;20201;-82
2023/04/21 06:26:52;;;;;;;10.27;9.27;;;;;;;12.22;100.00;99360.69;6165544;23;20162;-81
2023/04/21 06:29:21;;;;;;;10.27;9.10;;;;;;;12.43;100.00;99353.84;6140757;23;20173;-81
2023/04/21 06:31:48;;;;;;;9.90;9.00;;;;;;;12.63;100.00;99363.13;6165320;23;20225;-81
2023/04/21 06:34:15;;;;;;;9.53;8.53;;;;;;;12.75;100.00;99355.84;6164864;23;20612;-81
2023/04/21 06:36:41;;;;;;;10.27;9.37;;;;;;;12.79;100.00;99356.16;6165445;23;20636;-82
2023/04/21 06:39:08;;;;;;;10.27;9.30;;;;;;;13.04;100.00;99358.50;6140870;23;20170;-81
2023/04/21 06:41:35;;;;;;;11.03;9.80;;;;;;;12.97;100.00;99355.97;6140908;23;20174;-81
2023/04/21 06:44:02;;;;;;;10.60;9.70;;;;;;;13.28;100.00;99359.22;6140376;23;20174;-81
2023/04/21 06:46:28;;;;;;;9.73;8.63;;;;;;;13.42;100.00;99353.28;6164939;23;20213;-81
2023/04/21 06:48:55;;;;;;;10.07;9.07;;;;;;;13.62;100.00;99350.91;6140524;23;20170;-82
2023/04/21 06:51:22;;;;;;;8.53;7.73;;;;;;;13.81;100.00;99354.16;6140322;23;20193;-82
2023/04/21 06:53:48;;;;;;;11.00;8.97;;;;;;;14.03;100.00;99348.81;6140580;23;20264;-81
2023/04/21 06:56:15;;;;;;;9.13;8.23;;;;;;;14.19;100.00;99347.13;6165105;23;20207;-81
2023/04/21 06:58:42;;;;;;;13.43;12.13;;;;;;;14.31;100.00;99354.03;6140440;23;20202;-81
2023/04/21 07:01:09;;;;;;;12.30;11.20;;;;;;;14.43;100.00;99351.25;6164705;23;20163;-81
2023/04/21 07:03:35;;;;;;;9.70;8.80;;;;;;;14.52;100.00;99347.84;6164319;23;20168;-81
2023/04/21 07:06:02;;;;;;;9.13;8.23;;;;;;;14.58;100.00;99361.38;6164574;23;20182;-82
2023/04/21 07:08:29;;;;;;;9.37;8.50;;;;;;;14.70;100.00;99362.06;6139977;23;20176;-82
2023/04/21 07:10:56;;;;;;;9.73;8.63;;;;;;;14.79;100.00;99349.78;6139797;23;20279;-81
2023/04/21 07:13:23;;;;;;;8.97;8.00;;;;;;;14.86;100.00;99353.09;6139933;23;20229;-82
2023/04/21 07:15:49;;;;;;;9.53;8.63;;;;;;;14.95;100.00;99348.84;6164410;23;20554;-81
2023/04/21 07:18:16;;;;;;;10.17;8.40;;;;;;;15.07;100.00;99351.41;6139877;23;20270;-81
2023/04/21 07:20:43;;;;;;;9.33;7.83;;;;;;;15.21;100.00;99349.94;6140055;23;20184;-81
2023/04/21 07:23:10;;;;;;;10.97;8.20;;;;;;;15.33;100.00;99351.38;6131102;23;20211;-81
2023/04/21 07:25:36;;;;;;;9.33;8.40;;;;;;;15.44;100.00;99350.38;6110418;23;20175;-81
2023/04/21 07:28:03;;;;;;;8.87;7.97;;;;;;;15.46;100.00;99350.13;6134612;23;20176;-83
2023/04/21 07:30:30;;;;;;;9.07;8.17;;;;;;;15.57;100.00;99346.47;6134300;23;20194;-81
2023/04/21 07:32:57;;;;;;;10.13;7.60;;;;;;;15.73;100.00;99350.09;6134876;23;20190;-81
2023/04/21 07:35:24;;;;;;;8.23;7.10;;;;;;;15.88;100.00;99352.06;6134663;23;20181;-82
2023/04/21 07:37:51;;;;;;;8.00;7.20;;;;;;;16.02;100.00;99354.06;6135010;23;20221;-81
2023/04/21 07:40:18;;;;;;;8.40;7.33;;;;;;;15.97;100.00;99350.50;6110585;23;20203;-82
2023/04/21 07:42:44;;;;;;;7.67;6.87;;;;;;;16.12;100.00;99354.13;6134987;23;20216;-82
2023/04/21 07:45:11;;;;;;;7.43;6.73;;;;;;;16.06;100.00;99355.16;6133346;23;20217;-81
2023/04/21 07:47:38;;;;;;;8.03;6.97;;;;;;;16.21;100.00;99349.03;6159300;23;20167;-82
2023/04/21 07:50:05;;;;;;;7.83;6.83;;;;;;;16.42;100.00;99355.34;6134641;23;20273;-82
2023/04/21 07:52:32;;;;;;;7.83;6.60;;;;;;;16.53;100.00;99357.81;6111025;23;20208;-82
2023/04/21 07:54:59;;;;;;;7.40;6.23;;;;;;;16.83;100.00;99354.44;6110282;23;20201;-81
2023/04/21 07:57:25;;;;;;;9.63;6.43;;;;;;;16.99;100.00;99350.66;6134840;23;20206;-82
2023/04/21 07:59:52;;;;;;;8.43;5.73;;;;;;;17.09;100.00;99353.41;6159382;23;20165;-81
2023/04/21 08:02:19;;;;;;;7.30;5.10;;;;;;;17.34;98.70;99349.09;6109871;23;20261;-81
2023/04/21 08:04:45;;;;;;;6.30;4.83;;;;;;;17.40;97.69;99343.44;6134595;23;20221;-81
2023/04/21 08:07:14;;;;;;;7.50;5.30;;;;;;;17.52;97.24;99341.25;6110435;23;20174;-81
2023/04/21 08:09:41;;;;;;;10.07;5.20;;;;;;;17.71;96.86;99344.25;6134575;23;20181;-81
2023/04/21 08:12:08;;;;;;;9.00;4.93;;;;;;;17.83;93.25;99354.78;6134952;23;20178;-81
2023/04/21 08:14:34;;;;;;;6.43;5.10;;;;;;;17.87;93.66;99345.03;6109876;23;20258;-81
2023/04/21 08:17:01;;;;;;;7.80;5.37;;;;;;;17.92;90.91;99350.41;6134385;23;20225;-81
2023/04/21 08:19:28;;;;;;;7.90;5.03;;;;;;;17.95;90.22;99342.59;6133909;23;20174;-81
2023/04/21 08:21:54;;;;;;;9.10;4.53;;;;;;;18.02;91.48;99350.41;6134730;23;20261;-81
2023/04/21 08:24:21;;;;;;;6.17;3.80;;;;;;;17.88;82.80;99342.03;6157174;23;20244;-81
2023/04/21 08:26:48;;;;;;;7.27;3.97;;;;;;;18.03;82.78;99338.47;6139572;23;20170;-81
2023/04/21 08:29:15;;;;;;;6.70;3.80;;;;;;;18.11;83.06;99351.47;6163818;23;20174;-81
2023/04/21 08:31:41;;;;;;;8.13;3.57;;;;;;;18.06;78.74;99342.56;6138912;23;20225;-82
2023/04/21 08:34:08;;;;;;;5.73;3.37;;;;;;;18.12;75.24;99342.25;6163998;23;20649;-80
2023/04/21 08:36:35;;;;;;;7.87;3.60;;;;;;;18.14;75.56;99345.50;6163300;23;20261;-80
2023/04/21 08:39:02;;;;;;;5.63;3.30;;;;;;;18.25;75.18;99340.84;6187789;23;20240;-79
2023/04/21 08:41:28;;;;;;;9.13;3.30;;;;;;;18.22;67.33;99339.50;6162694;23;20216;-80
2023/04/21 08:43:55;;;;;;;5.93;3.10;;;;;;;18.52;66.69;99335.06;6139010;23;20169;-80
2023/04/21 08:46:22;;;;;;;7.87;3.10;;;;;;;18.50;65.11;99338.06;6187650;23;20189;-80
2023/04/21 08:48:49;;;;;;;8.47;3.30;;;;;;;18.59;68.14;99341.03;6187911;23;20158;-80
2023/04/21 08:51:22;;;;;;;6.03;3.40;;;;;;;18.59;62.70;99336.41;6213619;23;20668;-80
2023/04/21 08:53:50;;;;;;;5.87;3.20;;;;;;;18.65;61.77;99337.19;6185169;23;20220;-79
2023/04/21 08:56:17;;;;;;;7.30;3.47;;;;;;;18.50;59.67;99335.34;6163075;23;20174;-79
2023/04/21 08:58:44;;;;;;;7.03;3.40;;;;;;;18.48;60.27;99334.78;6186485;23;20170;-79
2023/04/21 09:01:11;;;;;;;12.40;3.80;;;;;;;18.38;59.76;99332.94;6187814;23;20323;-80
2023/04/21 09:03:38;;;;;;;7.37;3.30;;;;;;;18.38;60.49;99340.28;6187488;23;20815;-79
2023/04/21 09:06:07;;;;;;;8.17;3.50;;;;;;;18.38;60.35;99321.28;6138820;23;20507;-79
2023/04/21 09:08:41;;;;;;;4.90;3.50;;;;;;;18.54;61.61;99328.28;6187740;23;20158;-80
2023/04/21 09:11:12;;;;;;;6.60;3.70;;;;;;;18.54;60.99;99336.44;6138554;23;20192;-81
2023/04/21 09:13:41;;;;;;;7.27;3.97;;;;;;;18.57;62.70;99330.44;6138170;23;20244;-81
2023/04/21 09:16:17;;;;;;;5.73;3.70;;;;;;;18.65;61.90;99331.78;6163095;23;20170;-81
2023/04/21 09:18:44;;;;;;;8.23;3.40;;;;;;;18.79;60.49;99320.03;6139105;23;20659;-81
2023/04/21 09:21:11;;;;;;;12.17;3.90;;;;;;;18.83;61.09;99326.50;6138906;23;20200;-82
2023/04/21 09:23:49;;;;;;;5.03;3.13;;;;;;;18.97;61.37;99325.88;6138680;23;20201;-82
2023/04/21 09:26:18;;;;;;;7.97;3.83;;;;;;;19.02;60.88;99321.25;6138925;23;20170;-82
2023/04/21 09:28:46;;;;;;;7.97;4.00;;;;;;;19.07;63.19;99323.91;6137414;23;20173;-82
2023/04/21 09:31:23;;;;;;;6.40;4.00;;;;;;;19.02;62.28;99317.72;6138037;23;20382;-81
2023/04/21 09:33:55;;;;;;;6.47;4.20;;;;;;;19.27;63.49;99318.31;6164095;23;20189;-82
2023/04/21 09:36:28;;;;;;;7.00;3.63;;;;;;;19.30;59.26;99319.66;6137833;23;20187;-82
2023/04/21 09:38:58;;;;;;;6.40;3.60;;;;;;;19.37;59.41;99322.84;6162924;23;20170;-81
2023/04/21 09:41:45;;;;;;;9.97;4.20;;;;;;;19.42;57.38;99319.28;6167231;23;20253;-81
2023/04/21 09:44:12;;;;;;;8.00;3.47;;;;;;;19.43;59.02;99310.88;6138338;23;20177;-80
2023/04/21 09:46:42;;;;;;;5.83;3.37;;;;;;;19.50;57.21;99305.97;6163071;23;20171;-81
2023/04/21 09:49:11;;;;;;;7.23;3.87;;;;;;;19.55;57.46;99308.59;6138900;23;20163;-81
2023/04/21 09:51:39;;;;;;;7.50;3.70;;;;;;;19.65;57.72;99299.53;6138275;23;20192;-81
2023/04/21 09:54:30;;;;;;;8.73;3.27;;;;;;;19.90;57.84;99303.91;6146870;23;20253;-82
2023/04/21 09:57:03;;;;;;;5.73;3.90;;;;;;;20.09;56.44;99296.63;6138859;23;20185;-81
2023/04/21 09:59:37;;;;;;;6.50;3.70;;;;;;;20.35;58.02;99300.69;6138487;23;20626;-81
2023/04/21 10:02:06;;;;;;;5.90;3.30;;;;;;;20.56;54.41;99306.69;6162634;23;20179;-82
2023/04/21 10:04:34;;;;;;;5.97;3.63;;;;;;;20.67;53.99;99295.34;6138082;23;20166;-81
2023/04/21 10:07:02;;;;;;;7.07;3.63;;;;;;;20.69;54.85;99297.78;6162925;23;20177;-81
2023/04/21 10:09:44;;;;;;;6.67;3.17;;;;;;;20.41;53.23;99299.53;6162462;23;20256;-81
2023/04/21 10:12:12;;;;;;;6.20;3.37;;;;;;;20.53;52.81;99290.97;6138786;23;20195;-83
2023/04/21 10:14:39;;;;;;;7.33;3.50;;;;;;;20.25;52.41;99300.00;6138034;23;20171;-81
2023/04/21 10:17:07;;;;;;;6.00;3.53;;;;;;;20.30;55.21;99297.19;6138218;23;20240;-81
2023/04/21 10:19:38;;;;;;;7.73;3.40;;;;;;;20.27;53.71;99286.91;6162113;23;20178;-81
2023/04/21 10:22:09;;;;;;;5.87;3.23;;;;;;;20.25;55.12;99287.19;6163713;23;20177;-83
2023/04/21 10:24:39;;;;;;;5.83;3.33;;;;;;;20.19;52.81;99289.19;6162701;23;20207;-81
2023/04/21 10:27:10;;;;;;;5.60;3.40;;;;;;;20.00;52.41;99285.59;6187937;23;20625;-80
2023/04/21 10:29:37;;;;;;;5.97;3.20;;;;;;;20.02;52.05;99275.22;6188020;23;20156;-81
2023/04/21 10:32:41;;;;;;;6.97;3.63;;;;;;;20.12;52.39;99279.72;6170484;23;20245;-81
2023/04/21 10:35:09;;;;;;;6.70;4.17;;;;;;;20.05;53.44;99277.38;6138365;23;20262;-81
2023/04/21 10:37:36;;;;;;;26.73;15.93;;;;;;;20.18;53.07;99273.94;6162902;23;20171;-81
2023/04/21 10:40:08;;;;;;;15.43;10.90;;;;;;;20.30;53.99;99270.81;6186896;23;20175;-81
2023/04/21 10:42:35;;;;;;;9.40;4.27;;;;;;;20.44;52.67;99270.91;6138845;23;20176;-81
2023/04/21 10:45:07;;;;;;;18.63;13.13;;;;;;;20.48;51.39;99264.59;6139115;23;20196;-82
2023/04/21 10:47:48;;;;;;;134.00;93.63;;;;;;;20.57;50.91;99265.59;6162351;23;20177;-81
2023/04/21 10:50:16;;;;;;;19.43;14.07;;;;;;;20.44;50.31;99262.75;6162188;23;20283;-81
2023/04/21 10:52:52;;;;;;;15.50;10.37;;;;;;;20.66;48.90;99254.84;6187338;23;20204;-81
2023/04/21 10:55:20;;;;;;;7.30;5.10;;;;;;;20.80;49.47;99257.63;6163028;23;20173;-81
2023/04/21 10:57:47;;;;;;;9.30;7.00;;;;;;;20.81;49.42;99256.53;6139516;23;20196;-81
2023/04/21 11:00:16;;;;;;;9.37;6.37;;;;;;;20.77;48.89;99259.03;6140199;23;20677;-81
2023/04/21 11:02:43;;;;;;;10.13;6.30;;;;;;;20.89;49.37;99247.69;6163967;23;20172;-81
2023/04/21 11:05:11;;;;;;;10.67;5.53;;;;;;;21.02;48.83;99263.28;6164563;23;20175;-81
2023/04/21 11:07:37;;;;;;;24.63;16.60;;;;;;;21.09;46.56;99250.88;6139475;23;20166;-82
2023/04/21 11:10:09;;;;;;;8.43;5.93;;;;;;;21.09;44.73;99242.72;6163732;23;20235;-81
2023/04/21 11:12:38;;;;;;;24.00;14.60;;;;;;;21.13;45.51;99240.25;6140189;23;20199;-81
2023/04/21 11:15:07;;;;;;;11.87;8.27;;;;;;;21.20;44.59;99237.13;6139249;23;20199;-81
2023/04/21 11:17:37;;;;;;;25.07;19.97;;;;;;;21.37;44.53;99235.44;6164532;23;20198;-82
2023/04/21 11:20:05;;;;;;;12.70;7.87;;;;;;;21.44;45.47;99235.88;6164059;23;20261;-82
2023/04/21 11:22:32;;;;;;;39.07;30.67;;;;;;;21.52;46.48;99234.38;6139343;23;20172;-81
2023/04/21 11:24:59;;;;;;;8.47;6.13;;;;;;;21.68;45.34;99230.25;6134491;23;20176;-81
2023/04/21 11:27:28;;;;;;;11.13;7.73;;;;;;;21.85;44.96;99222.28;6109999;23;20172;-81
2023/04/21 11:29:56;;;;;;;5.63;3.50;;;;;;;21.89;44.23;99217.03;6110167;23;20182;-81
2023/04/21 11:32:23;;;;;;;14.50;7.50;;;;;;;22.00;42.49;99217.66;6134903;23;20198;-81
2023/04/21 11:34:49;;;;;;;9.77;6.10;;;;;;;21.77;40.99;99216.72;6134438;23;20253;-82